Time;durP1;ratioP1;P1;durP2;ratioP2;P2;SDS_P1;SDS_P2;PMS_P1;PMS_P2;Temp;Humidity;BMP_temperature;BMP_pressure;BME280_temperature;BME280_humidity;BME280_pressure;Samples;Min_cycle;Max_cycle;Signal;HPM_P1;HPM_P2
2022/06/19 00:02:04;;;;;;;;;;;;;;;;;;5063819;27;118854;-72
2022/06/19 00:04:31;;;;;;;;;;;;;;;;;;5060645;27;106785;-72
2022/06/19 00:06:57;;;;;;;;;;;;;;;;;;5050803;27;131859;-72
2022/06/19 00:09:24;;;;;;;;;;;;;;;;;;5032087;27;118738;-72
2022/06/19 00:11:50;;;;;;;;;;;;;;;;;;5047350;27;137328;-73
2022/06/19 00:14:16;;;;;;;;;;;;;;;;;;5042745;27;135938;-73
2022/06/19 00:16:43;;;;;;;;;;;;;;;;;;5046567;27;106206;-72
2022/06/19 00:19:09;;;;;;;;;;;;;;;;;;5042307;27;136320;-72
2022/06/19 00:21:35;;;;;;;;;;;;;;;;;;5048118;27;113303;-71
2022/06/19 00:24:02;;;;;;;;;;;;;;;;;;5049049;27;136620;-72
2022/06/19 00:26:28;;;;;;;;;;;;;;;;;;5044995;27;129959;-72
2022/06/19 00:28:56;;;;;;;;;;;;;;;;;;5039977;27;106564;-72
2022/06/19 00:31:22;;;;;;;;;;;;;;;;;;5048953;27;134956;-73
2022/06/19 00:33:48;;;;;;;;;;;;;;;;;;5048969;27;128395;-71
2022/06/19 00:36:15;;;;;;;;;;;;;;;;;;5036657;27;106101;-72
2022/06/19 00:38:41;;;;;;;;;;;;;;;;;;5048320;27;122429;-72
2022/06/19 00:41:08;;;;;;;;;;;;;;;;;;5050819;27;134786;-72
2022/06/19 00:43:34;;;;;;;;;;;;;;;;;;5036572;27;135747;-72
2022/06/19 00:46:00;;;;;;;;;;;;;;;;;;5068017;27;126103;-72
2022/06/19 00:48:28;;;;;;;;;;;;;;;;;;5036321;27;109561;-72
2022/06/19 00:50:54;;;;;;;;;;;;;;;;;;5043029;27;132667;-71
2022/06/19 00:53:21;;;;;;;;;;;;;;;;;;5041576;27;127453;-72
2022/06/19 00:55:47;;;;;;;;;;;;;;;;;;5048899;27;106710;-71
2022/06/19 00:58:13;;;;;;;;;;;;;;;;;;5047977;27;123323;-73
2022/06/19 01:00:40;;;;;;;;;;;;;;;;;;5041817;27;107264;-72
2022/06/19 01:03:06;;;;;;;;;;;;;;;;;;5051064;27;118686;-72
2022/06/19 01:05:32;;;;;;;;;;;;;;;;;;5049669;27;125752;-73
2022/06/19 01:07:59;;;;;;;;;;;;;;;;;;5052333;22;106592;-72
2022/06/19 01:10:25;;;;;;;;;;;;;;;;;;5008208;28;135976;-74
2022/06/19 01:12:51;;;;;;;;;;;;;;;;;;5007774;27;138616;-73
2022/06/19 01:15:18;;;;;;;;;;;;;;;;;;5003202;28;106689;-72
2022/06/19 01:17:44;;;;;;;;;;;;;;;;;;5009561;27;120913;-74
2022/06/19 01:20:11;;;;;;;;;;;;;;;;;;5007782;27;125843;-71
2022/06/19 01:22:37;;;;;;;;;;;;;;;;;;4990941;28;106135;-72
2022/06/19 01:25:03;;;;;;;;;;;;;;;;;;5012738;27;106636;-72
2022/06/19 01:30:15;;;;;;;;;;;;;;;;;;5002774;28;134129;-73
2022/06/19 01:32:41;;;;;;;;;;;;;;;;;;4988889;27;135450;-73
2022/06/19 01:35:07;;;;;;;;;;;;;;;;;;5007861;27;117641;-72
2022/06/19 01:37:34;;;;;;;;;;;;;;;;;;4987219;27;135388;-73
2022/06/19 01:40:00;;;;;;;;;;;;;;;;;;5006237;27;118631;-73
2022/06/19 01:42:26;;;;;;;;;;;;;;;;;;5008575;28;105709;-73
2022/06/19 01:44:53;;;;;;;;;;;;;;;;;;5007667;27;108261;-72
2022/06/19 01:47:19;;;;;;;;;;;;;;;;;;4990378;28;106371;-72
2022/06/19 01:49:46;;;;;;;;;;;;;;;;;;5008827;27;127200;-74
2022/06/19 01:52:12;;;;;;;;;;;;;;;;;;5007796;28;111097;-74
2022/06/19 01:54:38;;;;;;;;;;;;;;;;;;5004573;27;117367;-73
2022/06/19 01:57:04;;;;;;;;;;;;;;;;;;5007841;28;134029;-73
2022/06/19 01:59:31;;;;;;;;;;;;;;;;;;5009262;27;137810;-74
2022/06/19 02:01:57;;;;;;;;;;;;;;;;;;5010980;27;106463;-72
2022/06/19 02:04:23;;;;;;;;;;;;;;;;;;5007805;28;129212;-72
2022/06/19 02:06:50;;;;;;;;;;;;;;;;;;5009863;28;136218;-72
2022/06/19 02:09:16;;;;;;;;;;;;;;;;;;5006473;28;132047;-73
2022/06/19 02:11:42;;;;;;;;;;;;;;;;;;5003086;27;122100;-72
2022/06/19 02:14:09;;;;;;;;;;;;;;;;;;5005817;28;107673;-72
2022/06/19 02:16:35;;;;;;;;;;;;;;;;;;5008396;28;136355;-71
2022/06/19 02:19:01;;;;;;;;;;;;;;;;;;5011718;28;135499;-71
2022/06/19 02:21:28;;;;;;;;;;;;;;;;;;5012031;28;105884;-72
2022/06/19 02:23:54;;;;;;;;;;;;;;;;;;5005557;28;107591;-71
2022/06/19 02:26:20;;;;;;;;;;;;;;;;;;5008067;28;123799;-71
2022/06/19 02:28:47;;;;;;;;;;;;;;;;;;5011594;27;106176;-73
2022/06/19 02:31:16;;;;;;;;;;;;;;;;;;5011067;28;124322;-72
2022/06/19 02:33:42;;;;;;;;;;;;;;;;;;5006404;28;117805;-73
2022/06/19 02:36:08;;;;;;;;;;;;;;;;;;5010379;28;128995;-72
2022/06/19 02:38:35;;;;;;;;;;;;;;;;;;5010646;28;106417;-72
2022/06/19 02:41:02;;;;;;;;;;;;;;;;;;5012376;28;108289;-73
2022/06/19 02:43:28;;;;;;;;;;;;;;;;;;5011443;28;134060;-72
2022/06/19 02:45:54;;;;;;;;;;;;;;;;;;5009122;27;129729;-71
2022/06/19 02:48:21;;;;;;;;;;;;;;;;;;5011533;27;106022;-68
2022/06/19 02:50:47;;;;;;;;;;;;;;;;;;5009699;28;107224;-72
2022/06/19 02:53:14;;;;;;;;;;;;;;;;;;5012540;28;106820;-71
2022/06/19 02:55:40;;;;;;;;;;;;;;;;;;5010695;28;129073;-71
2022/06/19 02:58:07;;;;;;;;;;;;;;;;;;5009553;28;128427;-72
2022/06/19 03:00:33;;;;;;;;;;;;;;;;;;5009797;28;118452;-71
2022/06/19 03:02:59;;;;;;;;;;;;;;;;;;5011874;28;106810;-72
2022/06/19 03:05:26;;;;;;;;;;;;;;;;;;5001576;27;108680;-72
2022/06/19 03:07:52;;;;;;;;;;;;;;;;;;5009694;28;116831;-71
2022/06/19 03:10:19;;;;;;;;;;;;;;;;;;5005652;28;133835;-72
2022/06/19 03:12:46;;;;;;;;;;;;;;;;;;5012992;28;138226;-72
2022/06/19 03:15:12;;;;;;;;;;;;;;;;;;4992390;28;137114;-71
2022/06/19 03:17:38;;;;;;;;;;;;;;;;;;5008877;28;136889;-71
2022/06/19 03:20:05;;;;;;;;;;;;;;;;;;5008752;28;111803;-72
2022/06/19 03:22:31;;;;;;;;;;;;;;;;;;5008477;27;136456;-72
2022/06/19 03:24:57;;;;;;;;;;;;;;;;;;5000757;28;130160;-72
2022/06/19 03:27:23;;;;;;;;;;;;;;;;;;5008336;28;115197;-71
2022/06/19 03:29:50;;;;;;;;;;;;;;;;;;5010294;28;131226;-73
2022/06/19 03:32:16;;;;;;;;;;;;;;;;;;5010520;28;129880;-71
2022/06/19 03:34:42;;;;;;;;;;;;;;;;;;5008275;28;112720;-72
2022/06/19 03:37:09;;;;;;;;;;;;;;;;;;5008949;28;109357;-71
2022/06/19 03:39:35;;;;;;;;;;;;;;;;;;5001266;28;116310;-71
2022/06/19 03:42:01;;;;;;;;;;;;;;;;;;5010319;27;131319;-71
2022/06/19 03:44:28;;;;;;;;;;;;;;;;;;4989175;28;134500;-71
2022/06/19 03:46:54;;;;;;;;;;;;;;;;;;5004843;28;118654;-71
2022/06/19 03:49:20;;;;;;;;;;;;;;;;;;5003644;28;136116;-71
2022/06/19 03:51:47;;;;;;;;;;;;;;;;;;5005971;28;107924;-71
2022/06/19 03:54:13;;;;;;;;;;;;;;;;;;5012511;28;117774;-71
2022/06/19 03:56:39;;;;;;;;;;;;;;;;;;5009766;28;119825;-71
2022/06/19 03:59:09;;;;;;;;;;;;;;;;;;5009567;27;118428;-71
2022/06/19 04:01:35;;;;;;;;;;;;;;;;;;5009965;28;126060;-71
2022/06/19 04:04:01;;;;;;;;;;;;;;;;;;5008809;28;124245;-71
2022/06/19 04:06:28;;;;;;;;;;;;;;;;;;5000062;28;106334;-72
2022/06/19 04:08:54;;;;;;;;;;;;;;;;;;5019887;27;134259;-72
2022/06/19 04:11:20;;;;;;;;;;;;;;;;;;5024444;27;107201;-71
2022/06/19 04:13:47;;;;;;;;;;;;;;;;;;5010038;28;118891;-71
2022/06/19 04:16:13;;;;;;;;;;;;;;;;;;5020044;27;130401;-72
2022/06/19 04:18:40;;;;;;;;;;;;;;;;;;5012393;27;112807;-71
2022/06/19 04:21:06;;;;;;;;;;;;;;;;;;5014383;27;136572;-72
2022/06/19 04:23:32;;;;;;;;;;;;;;;;;;4999719;27;131686;-71
2022/06/19 04:25:59;;;;;;;;;;;;;;;;;;5019493;27;107825;-71
2022/06/19 04:28:25;;;;;;;;;;;;;;;;;;5023379;27;127819;-71
2022/06/19 04:30:51;;;;;;;;;;;;;;;;;;5019325;27;137820;-71
2022/06/19 04:33:18;;;;;;;;;;;;;;;;;;5014089;27;105976;-72
2022/06/19 04:35:44;;;;;;;;;;;;;;;;;;5012982;27;121727;-72
2022/06/19 04:38:11;;;;;;;;;;;;;;;;;;5013676;28;107611;-72
2022/06/19 04:40:42;;;;;;;;;;;;;;;;;;5009725;28;119215;-72
2022/06/19 04:43:09;;;;;;;;;;;;;;;;;;5000023;27;125539;-71
2022/06/19 04:45:35;;;;;;;;;;;;;;;;;;5018427;27;106021;-72
2022/06/19 04:48:01;;;;;;;;;;;;;;;;;;5014481;27;134744;-72
2022/06/19 04:50:28;;;;;;;;;;;;;;;;;;5013966;27;131138;-72
2022/06/19 04:52:54;;;;;;;;;;;;;;;;;;5026776;27;109988;-72
2022/06/19 04:55:21;;;;;;;;;;;;;;;;;;5007452;27;133605;-73
2022/06/19 04:57:47;;;;;;;;;;;;;;;;;;5006300;27;131870;-73
2022/06/19 05:00:13;;;;;;;;;;;;;;;;;;5005828;27;106556;-70
2022/06/19 05:02:40;;;;;;;;;;;;;;;;;;5001861;27;111501;-70
2022/06/19 05:05:06;;;;;;;;;;;;;;;;;;5006908;28;115329;-70
2022/06/19 05:07:32;;;;;;;;;;;;;;;;;;4989292;27;121132;-70
2022/06/19 05:09:59;;;;;;;;;;;;;;;;;;5004680;27;130994;-70
2022/06/19 05:12:25;;;;;;;;;;;;;;;;;;5006298;28;115462;-71
2022/06/19 05:14:53;;;;;;;;;;;;;;;;;;5004358;28;124673;-70
2022/06/19 05:17:19;;;;;;;;;;;;;;;;;;5007275;28;135075;-69
2022/06/19 05:19:46;;;;;;;;;;;;;;;;;;5007420;28;106098;-68
2022/06/19 05:22:12;;;;;;;;;;;;;;;;;;5009081;28;106744;-68
2022/06/19 05:24:38;;;;;;;;;;;;;;;;;;5000608;27;119038;-72
2022/06/19 05:27:05;;;;;;;;;;;;;;;;;;5001625;27;134195;-71
2022/06/19 05:29:32;;;;;;;;;;;;;;;;;;4987730;28;127752;-71
2022/06/19 05:32:00;;;;;;;;;;;;;;;;;;5006669;28;109893;-72
2022/06/19 05:34:26;;;;;;;;;;;;;;;;;;4995660;28;116911;-71
2022/06/19 05:36:52;;;;;;;;;;;;;;;;;;5003423;27;108220;-72
2022/06/19 05:39:18;;;;;;;;;;;;;;;;;;4985899;28;111860;-70
2022/06/19 05:41:45;;;;;;;;;;;;;;;;;;5006908;28;121509;-70
2022/06/19 05:44:11;;;;;;;;;;;;;;;;;;5012021;28;128753;-71
2022/06/19 05:46:38;;;;;;;;;;;;;;;;;;4999133;27;126770;-68
2022/06/19 05:49:04;;;;;;;;;;;;;;;;;;5006198;27;136714;-69
2022/06/19 05:51:30;;;;;;;;;;;;;;;;;;5000496;28;116778;-69
2022/06/19 05:53:57;;;;;;;;;;;;;;;;;;5012912;28;129507;-69
2022/06/19 05:56:23;;;;;;;;;;;;;;;;;;5011308;28;123938;-68
2022/06/19 05:58:49;;;;;;;;;;;;;;;;;;5011461;27;111167;-69
2022/06/19 06:01:16;;;;;;;;;;;;;;;;;;5010817;28;114978;-69
2022/06/19 06:03:42;;;;;;;;;;;;;;;;;;5014254;28;123333;-69
2022/06/19 06:06:08;;;;;;;;;;;;;;;;;;5010517;28;134561;-69
2022/06/19 06:08:35;;;;;;;;;;;;;;;;;;5010231;28;135814;-68
2022/06/19 06:11:01;;;;;;;;;;;;;;;;;;5012390;28;106322;-69
2022/06/19 06:13:29;;;;;;;;;;;;;;;;;;5011988;28;118274;-69
2022/06/19 06:15:55;;;;;;;;;;;;;;;;;;5009682;27;107285;-69
2022/06/19 06:18:21;;;;;;;;;;;;;;;;;;5010109;28;117609;-69
2022/06/19 06:20:48;;;;;;;;;;;;;;;;;;5006288;28;107913;-68
2022/06/19 06:23:14;;;;;;;;;;;;;;;;;;5010620;28;123160;-70
2022/06/19 06:25:42;;;;;;;;;;;;;;;;;;5006501;27;118810;-70
2022/06/19 06:28:12;;;;;;;;;;;;;;;;;;5000831;28;127437;-70
2022/06/19 06:30:39;;;;;;;;;;;;;;;;;;5005076;28;106780;-70
2022/06/19 06:33:05;;;;;;;;;;;;;;;;;;4997613;27;134195;-70
2022/06/19 06:35:32;;;;;;;;;;;;;;;;;;5004632;27;129196;-73
2022/06/19 06:37:58;;;;;;;;;;;;;;;;;;5013761;28;117893;-70
2022/06/19 06:40:25;;;;;;;;;;;;;;;;;;5003879;28;125514;-67
2022/06/19 06:42:51;;;;;;;;;;;;;;;;;;5009963;28;130906;-67
2022/06/19 06:45:18;;;;;;;;;;;;;;;;;;4999625;27;115772;-67
2022/06/19 06:47:44;;;;;;;;;;;;;;;;;;5010084;27;118280;-66
2022/06/19 06:50:10;;;;;;;;;;;;;;;;;;5009273;27;119290;-65
2022/06/19 06:52:36;;;;;;;;;;;;;;;;;;5004972;28;110891;-68
2022/06/19 06:55:03;;;;;;;;;;;;;;;;;;5006145;28;111966;-66
2022/06/19 06:57:29;;;;;;;;;;;;;;;;;;5012340;28;106422;-66
2022/06/19 06:59:55;;;;;;;;;;;;;;;;;;4991479;28;111630;-68
2022/06/19 07:02:22;;;;;;;;;;;;;;;;;;5006766;27;118935;-66
2022/06/19 07:04:48;;;;;;;;;;;;;;;;;;5008947;28;118638;-65
2022/06/19 07:07:15;;;;;;;;;;;;;;;;;;5003624;27;136996;-67
2022/06/19 07:09:41;;;;;;;;;;;;;;;;;;5009848;28;106877;-66
2022/06/19 07:12:08;;;;;;;;;;;;;;;;;;5003858;28;135780;-66
2022/06/19 07:14:34;;;;;;;;;;;;;;;;;;5003160;28;137612;-67
2022/06/19 07:17:00;;;;;;;;;;;;;;;;;;5004874;28;117979;-68
2022/06/19 07:19:27;;;;;;;;;;;;;;;;;;5004997;27;118367;-69
2022/06/19 07:21:53;;;;;;;;;;;;;;;;;;5003059;28;121750;-70
2022/06/19 07:24:19;;;;;;;;;;;;;;;;;;5010059;27;119070;-72
2022/06/19 07:26:46;;;;;;;;;;;;;;;;;;5002116;28;109508;-69
2022/06/19 07:29:12;;;;;;;;;;;;;;;;;;5006436;28;108086;-65
2022/06/19 07:31:38;;;;;;;;;;;;;;;;;;5007200;27;115559;-66
2022/06/19 07:34:05;;;;;;;;;;;;;;;;;;5008221;28;107271;-67
2022/06/19 07:36:31;;;;;;;;;;;;;;;;;;5002527;28;116789;-66
2022/06/19 07:38:58;;;;;;;;;;;;;;;;;;5006871;27;106856;-67
2022/06/19 07:41:24;;;;;;;;;;;;;;;;;;5001489;27;135809;-67
2022/06/19 07:43:51;;;;;;;;;;;;;;;;;;4998405;27;108905;-67
2022/06/19 07:46:18;;;;;;;;;;;;;;;;;;5003173;28;106474;-68
2022/06/19 07:51:29;;;;;;;;;;;;;;;;;;5000797;28;109349;-69
2022/06/19 07:53:57;;;;;;;;;;;;;;;;;;5009341;28;129387;-67
2022/06/19 07:56:24;;;;;;;;;;;;;;;;;;5005511;27;114693;-67
2022/06/19 07:58:50;;;;;;;;;;;;;;;;;;5007314;28;126059;-68
2022/06/19 08:01:16;;;;;;;;;;;;;;;;;;5000530;28;122620;-70
2022/06/19 08:03:43;;;;;;;;;;;;;;;;;;5006388;28;118135;-68
2022/06/19 08:06:10;;;;;;;;;;;;;;;;;;4996810;27;126546;-67
2022/06/19 08:08:36;;;;;;;;;;;;;;;;;;5006954;28;107346;-68
2022/06/19 08:11:04;;;;;;;;;;;;;;;;;;4998749;27;108076;-66
2022/06/19 08:13:31;;;;;;;;;;;;;;;;;;5001516;27;127898;-67
2022/06/19 08:15:57;;;;;;;;;;;;;;;;;;4996233;28;108437;-66
2022/06/19 08:18:23;;;;;;;;;;;;;;;;;;4993760;28;128324;-68
2022/06/19 08:20:50;;;;;;;;;;;;;;;;;;4998677;28;108127;-68
2022/06/19 08:23:17;;;;;;;;;;;;;;;;;;4997892;28;109374;-74
2022/06/19 08:25:45;;;;;;;;;;;;;;;;;;4996040;28;135315;-68
2022/06/19 08:28:11;;;;;;;;;;;;;;;;;;4991949;27;115995;-71
2022/06/19 08:30:37;;;;;;;;;;;;;;;;;;5001407;28;117434;-68
2022/06/19 08:33:04;;;;;;;;;;;;;;;;;;5003873;28;128479;-68
2022/06/19 08:35:30;;;;;;;;;;;;;;;;;;5010612;28;137022;-68
2022/06/19 08:37:56;;;;;;;;;;;;;;;;;;4987211;28;108746;-68
2022/06/19 08:40:23;;;;;;;;;;;;;;;;;;5001770;28;108094;-68
2022/06/19 08:42:49;;;;;;;;;;;;;;;;;;4997849;28;107467;-68
2022/06/19 08:45:16;;;;;;;;;;;;;;;;;;4999604;27;128701;-67
2022/06/19 08:47:42;;;;;;;;;;;;;;;;;;5004572;28;115641;-66
2022/06/19 08:50:08;;;;;;;;;;;;;;;;;;5005013;28;113585;-67
2022/06/19 08:52:35;;;;;;;;;;;;;;;;;;4993220;28;128078;-67
2022/06/19 08:55:01;;;;;;;;;;;;;;;;;;4994373;28;135531;-67
2022/06/19 08:57:27;;;;;;;;;;;;;;;;;;4999300;28;118186;-67
2022/06/19 08:59:53;;;;;;;;;;;;;;;;;;5002407;27;136567;-66
2022/06/19 09:02:20;;;;;;;;;;;;;;;;;;4999605;27;106452;-66
2022/06/19 09:07:31;;;;;;;;;;;;;;;;;;4997376;28;135990;-67
2022/06/19 09:09:57;;;;;;;;;;;;;;;;;;5000168;28;113148;-66
2022/06/19 09:12:24;;;;;;;;;;;;;;;;;;5001076;28;133568;-67
2022/06/19 09:14:50;;;;;;;;;;;;;;;;;;5000534;28;129654;-67
2022/06/19 09:17:16;;;;;;;;;;;;;;;;;;4996373;28;106513;-67
2022/06/19 09:19:43;;;;;;;;;;;;;;;;;;5001925;28;135046;-67
2022/06/19 09:22:09;;;;;;;;;;;;;;;;;;5002317;27;110837;-67
2022/06/19 09:24:36;;;;;;;;;;;;;;;;;;5006362;27;136534;-67
2022/06/19 09:27:02;;;;;;;;;;;;;;;;;;4985981;28;136180;-67
2022/06/19 09:29:28;;;;;;;;;;;;;;;;;;5000534;28;116505;-67
2022/06/19 09:31:55;;;;;;;;;;;;;;;;;;5009092;28;133824;-67
2022/06/19 09:34:21;;;;;;;;;;;;;;;;;;5003564;28;110529;-67
2022/06/19 09:36:47;;;;;;;;;;;;;;;;;;5000403;28;111307;-66
2022/06/19 09:39:14;;;;;;;;;;;;;;;;;;5004386;27;131006;-65
2022/06/19 09:41:41;;;;;;;;;;;;;;;;;;5009096;28;136249;-66
2022/06/19 09:44:07;;;;;;;;;;;;;;;;;;4981517;28;120390;-66
2022/06/19 09:46:34;;;;;;;;;;;;;;;;;;5003418;28;134525;-66
2022/06/19 09:49:00;;;;;;;;;;;;;;;;;;5004215;28;113406;-67
2022/06/19 09:51:26;;;;;;;;;;;;;;;;;;5005892;28;106309;-66
2022/06/19 09:53:53;;;;;;;;;;;;;;;;;;5006056;28;132791;-66
2022/06/19 09:56:27;;;;;;;;;;;;;;;;;;5003856;27;110531;-66
2022/06/19 09:58:53;;;;;;;;;;;;;;;;;;5000656;28;119592;-67
2022/06/19 10:01:20;;;;;;;;;;;;;;;;;;5007531;28;131776;-66
2022/06/19 10:03:46;;;;;;;;;;;;;;;;;;4996997;28;110498;-66
2022/06/19 10:06:12;;;;;;;;;;;;;;;;;;5004322;27;126684;-66
2022/06/19 10:08:40;;;;;;;;;;;;;;;;;;4988491;28;107295;-66
2022/06/19 10:11:06;;;;;;;;;;;;;;;;;;5005933;28;125708;-66
2022/06/19 10:13:33;;;;;;;;;;;;;;;;;;5006023;27;138700;-67
2022/06/19 10:15:59;;;;;;;;;;;;;;;;;;5009034;28;109144;-70
2022/06/19 10:18:25;;;;;;;;;;;;;;;;;;5011026;28;127333;-72
2022/06/19 10:20:52;;;;;;;;;;;;;;;;;;4999159;28;134917;-68
2022/06/19 10:23:20;;;;;;;;;;;;;;;;;;5015060;28;118264;-69
2022/06/19 10:25:46;;;;;;;;;;;;;;;;;;5001454;28;125459;-67
2022/06/19 10:28:12;;;;;;;;;;;;;;;;;;5003801;27;107017;-68
2022/06/19 10:30:39;;;;;;;;;;;;;;;;;;5009850;27;135792;-68
2022/06/19 10:33:05;;;;;;;;;;;;;;;;;;4992199;27;124575;-68
2022/06/19 10:35:32;;;;;;;;;;;;;;;;;;5011181;28;106019;-68
2022/06/19 10:38:00;;;;;;;;;;;;;;;;;;5011294;28;125923;-68
2022/06/19 10:40:27;;;;;;;;;;;;;;;;;;5008695;28;125080;-67
2022/06/19 10:42:53;;;;;;;;;;;;;;;;;;5010725;27;118624;-68
2022/06/19 10:45:19;;;;;;;;;;;;;;;;;;5014471;28;122941;-68
2022/06/19 10:47:46;;;;;;;;;;;;;;;;;;5011226;28;106008;-68
2022/06/19 10:50:12;;;;;;;;;;;;;;;;;;5010687;28;116092;-69
2022/06/19 10:52:38;;;;;;;;;;;;;;;;;;5010697;28;132055;-69
2022/06/19 10:55:05;;;;;;;;;;;;;;;;;;5011134;28;106629;-69
2022/06/19 10:57:31;;;;;;;;;;;;;;;;;;5009407;27;137562;-69
2022/06/19 10:59:57;;;;;;;;;;;;;;;;;;5006146;27;126571;-68
2022/06/19 11:05:09;;;;;;;;;;;;;;;;;;4996760;28;109561;-68
2022/06/19 11:07:35;;;;;;;;;;;;;;;;;;5008234;27;106730;-68
2022/06/19 11:10:01;;;;;;;;;;;;;;;;;;4997433;27;132841;-68
2022/06/19 11:12:29;;;;;;;;;;;;;;;;;;5001998;28;129877;-67
2022/06/19 11:14:55;;;;;;;;;;;;;;;;;;5007375;27;106215;-72
2022/06/19 11:17:22;;;;;;;;;;;;;;;;;;5004788;27;124229;-69
2022/06/19 11:19:48;;;;;;;;;;;;;;;;;;4991292;28;136218;-68
2022/06/19 11:22:15;;;;;;;;;;;;;;;;;;5007308;28;106649;-68
2022/06/19 11:24:42;;;;;;;;;;;;;;;;;;5007119;28;130348;-68
2022/06/19 11:27:08;;;;;;;;;;;;;;;;;;5009047;28;136372;-68
2022/06/19 11:29:34;;;;;;;;;;;;;;;;;;5011898;27;106101;-68
2022/06/19 11:32:01;;;;;;;;;;;;;;;;;;5009721;28;137339;-68
2022/06/19 11:34:48;;;;;;;;;;;;;;;;;;5005980;27;106815;-68
2022/06/19 11:37:14;;;;;;;;;;;;;;;;;;4997274;28;133355;-68
2022/06/19 11:39:41;;;;;;;;;;;;;;;;;;5008750;28;129628;-68
2022/06/19 11:42:07;;;;;;;;;;;;;;;;;;4997419;28;112237;-68
2022/06/19 11:44:33;;;;;;;;;;;;;;;;;;4999260;28;107030;-67
2022/06/19 11:47:00;;;;;;;;;;;;;;;;;;5007383;28;114354;-68
2022/06/19 11:49:26;;;;;;;;;;;;;;;;;;5007540;27;110250;-68
2022/06/19 11:51:58;;;;;;;;;;;;;;;;;;5013271;28;123056;-68
2022/06/19 11:54:25;;;;;;;;;;;;;;;;;;5007749;28;118411;-68
2022/06/19 11:56:51;;;;;;;;;;;;;;;;;;5014959;27;130320;-68
2022/06/19 11:59:17;;;;;;;;;;;;;;;;;;5010709;27;135845;-68
2022/06/19 12:01:44;;;;;;;;;;;;;;;;;;5010794;27;119018;-68
2022/06/19 12:04:10;;;;;;;;;;;;;;;;;;5010800;27;127173;-68
2022/06/19 12:06:36;;;;;;;;;;;;;;;;;;4989364;28;107323;-68
2022/06/19 12:09:03;;;;;;;;;;;;;;;;;;5008910;27;117912;-68
2022/06/19 12:11:29;;;;;;;;;;;;;;;;;;5011771;27;106731;-68
2022/06/19 12:13:55;;;;;;;;;;;;;;;;;;5012953;27;106539;-71
2022/06/19 12:16:23;;;;;;;;;;;;;;;;;;5007315;28;137099;-69
2022/06/19 12:18:49;;;;;;;;;;;;;;;;;;5010792;27;130859;-71
2022/06/19 12:21:16;;;;;;;;;;;;;;;;;;5009638;27;107345;-73
2022/06/19 12:23:42;;;;;;;;;;;;;;;;;;5006808;27;123751;-67
2022/06/19 12:26:09;;;;;;;;;;;;;;;;;;5007005;27;107682;-67
2022/06/19 12:28:35;;;;;;;;;;;;;;;;;;5007479;27;110490;-67
2022/06/19 12:31:01;;;;;;;;;;;;;;;;;;5013212;27;136771;-66
2022/06/19 12:33:32;;;;;;;;;;;;;;;;;;5011072;27;119810;-67
2022/06/19 12:35:59;;;;;;;;;;;;;;;;;;5002719;28;136837;-67
2022/06/19 12:38:26;;;;;;;;;;;;;;;;;;5011186;27;117670;-67
2022/06/19 12:40:52;;;;;;;;;;;;;;;;;;5003318;28;117979;-68
2022/06/19 12:43:18;;;;;;;;;;;;;;;;;;4990467;27;136804;-67
2022/06/19 12:45:45;;;;;;;;;;;;;;;;;;5006612;27;122805;-67
2022/06/19 12:48:11;;;;;;;;;;;;;;;;;;5010896;27;108275;-68
2022/06/19 12:50:38;;;;;;;;;;;;;;;;;;5006464;27;117481;-67
2022/06/19 12:53:04;;;;;;;;;;;;;;;;;;5010364;27;137965;-67
2022/06/19 12:55:31;;;;;;;;;;;;;;;;;;5011670;28;118257;-67
2022/06/19 12:57:57;;;;;;;;;;;;;;;;;;5006029;28;116880;-67
2022/06/19 13:00:23;;;;;;;;;;;;;;;;;;5007882;28;118317;-67
2022/06/19 13:02:49;;;;;;;;;;;;;;;;;;5007418;28;111555;-67
2022/06/19 13:05:16;;;;;;;;;;;;;;;;;;5002149;27;137558;-67
2022/06/19 13:07:44;;;;;;;;;;;;;;;;;;5007412;28;106181;-66
2022/06/19 13:10:10;;;;;;;;;;;;;;;;;;5005139;28;136593;-67
2022/06/19 13:12:36;;;;;;;;;;;;;;;;;;5005042;27;114592;-67
2022/06/19 13:15:03;;;;;;;;;;;;;;;;;;5007958;28;107995;-68
2022/06/19 13:17:29;;;;;;;;;;;;;;;;;;5003470;27;114232;-67
2022/06/19 13:19:56;;;;;;;;;;;;;;;;;;4997112;27;108461;-66
2022/06/19 13:22:22;;;;;;;;;;;;;;;;;;5001548;28;135166;-67
2022/06/19 13:24:50;;;;;;;;;;;;;;;;;;5002695;28;136423;-67
2022/06/19 13:27:16;;;;;;;;;;;;;;;;;;5003624;28;119890;-67
2022/06/19 13:29:43;;;;;;;;;;;;;;;;;;5007562;28;128770;-67
2022/06/19 13:32:09;;;;;;;;;;;;;;;;;;5003527;28;126999;-67
2022/06/19 13:34:36;;;;;;;;;;;;;;;;;;5004796;27;116753;-68
2022/06/19 13:37:02;;;;;;;;;;;;;;;;;;5005650;28;106440;-68
2022/06/19 13:39:29;;;;;;;;;;;;;;;;;;4997533;27;108626;-68
2022/06/19 13:41:56;;;;;;;;;;;;;;;;;;4995414;27;128120;-68
2022/06/19 13:44:22;;;;;;;;;;;;;;;;;;4999286;27;117264;-68
2022/06/19 13:46:48;;;;;;;;;;;;;;;;;;5000693;28;117052;-68
2022/06/19 13:49:15;;;;;;;;;;;;;;;;;;5006591;27;106273;-67
2022/06/19 13:51:41;;;;;;;;;;;;;;;;;;5007625;28;124655;-67
2022/06/19 13:54:08;;;;;;;;;;;;;;;;;;5007945;27;106652;-67
2022/06/19 13:56:34;;;;;;;;;;;;;;;;;;5003325;28;117263;-67
2022/06/19 13:59:00;;;;;;;;;;;;;;;;;;4985745;28;119199;-66
2022/06/19 14:01:27;;;;;;;;;;;;;;;;;;5009118;27;107725;-66
2022/06/19 14:06:58;;;;;;;;;;;;;;;;;;5007312;28;106932;-67
2022/06/19 14:09:24;;;;;;;;;;;;;;;;;;5007170;27;133290;-67
2022/06/19 14:12:06;;;;;;;;;;;;;;;;;;5011099;28;121337;-67
2022/06/19 14:14:33;;;;;;;;;;;;;;;;;;5008203;28;106346;-66
2022/06/19 14:16:59;;;;;;;;;;;;;;;;;;5011557;28;107366;-67
2022/06/19 14:19:26;;;;;;;;;;;;;;;;;;5009159;28;123977;-67
2022/06/19 14:21:52;;;;;;;;;;;;;;;;;;5010397;27;107016;-67
2022/06/19 14:24:18;;;;;;;;;;;;;;;;;;5005479;27;124683;-67
2022/06/19 14:26:45;;;;;;;;;;;;;;;;;;5002583;27;105757;-67
2022/06/19 14:29:11;;;;;;;;;;;;;;;;;;4992499;28;125249;-67
2022/06/19 14:31:38;;;;;;;;;;;;;;;;;;5011097;28;119138;-67
2022/06/19 14:34:04;;;;;;;;;;;;;;;;;;5010475;28;112511;-67
2022/06/19 14:36:31;;;;;;;;;;;;;;;;;;5008133;28;107473;-67
2022/06/19 14:38:57;;;;;;;;;;;;;;;;;;5014437;27;117281;-67
2022/06/19 14:41:24;;;;;;;;;;;;;;;;;;5019367;27;120098;-66
2022/06/19 14:43:55;;;;;;;;;;;;;;;;;;5016675;27;127990;-67
2022/06/19 14:46:23;;;;;;;;;;;;;;;;;;5005493;27;121388;-67
2022/06/19 14:48:50;;;;;;;;;;;;;;;;;;5016027;27;134870;-67
2022/06/19 14:51:16;;;;;;;;;;;;;;;;;;5015383;27;112193;-67
2022/06/19 14:53:42;;;;;;;;;;;;;;;;;;5011852;27;113391;-67
2022/06/19 14:56:09;;;;;;;;;;;;;;;;;;5012184;27;106320;-67
2022/06/19 14:58:35;;;;;;;;;;;;;;;;;;5018637;27;135809;-67
2022/06/19 15:01:01;;;;;;;;;;;;;;;;;;5017084;27;118827;-67
2022/06/19 15:03:28;;;;;;;;;;;;;;;;;;5004601;27;135910;-68
2022/06/19 15:05:55;;;;;;;;;;;;;;;;;;5008456;27;137026;-67
2022/06/19 15:08:21;;;;;;;;;;;;;;;;;;5008107;27;110153;-67
2022/06/19 15:10:48;;;;;;;;;;;;;;;;;;5010849;27;126266;-67
2022/06/19 15:13:14;;;;;;;;;;;;;;;;;;5006146;27;107007;-67
2022/06/19 15:15:40;;;;;;;;;;;;;;;;;;5009916;28;108358;-67
2022/06/19 15:18:07;;;;;;;;;;;;;;;;;;5000960;27;109472;-68
2022/06/19 15:20:33;;;;;;;;;;;;;;;;;;5007399;27;108609;-67
2022/06/19 15:23:03;;;;;;;;;;;;;;;;;;5007805;28;134715;-67
2022/06/19 15:25:30;;;;;;;;;;;;;;;;;;5007946;28;135612;-67
2022/06/19 15:27:57;;;;;;;;;;;;;;;;;;5012273;28;106628;-66
2022/06/19 15:30:23;;;;;;;;;;;;;;;;;;5010004;28;107351;-68
2022/06/19 15:32:50;;;;;;;;;;;;;;;;;;5011438;27;113770;-70
2022/06/19 15:35:17;;;;;;;;;;;;;;;;;;5006073;28;106675;-72
2022/06/19 15:37:44;;;;;;;;;;;;;;;;;;5003017;27;119798;-71
2022/06/19 15:40:10;;;;;;;;;;;;;;;;;;5007019;27;106097;-69
2022/06/19 15:42:41;;;;;;;;;;;;;;;;;;5005899;27;136217;-68
2022/06/19 15:45:08;;;;;;;;;;;;;;;;;;5006827;28;107424;-68
2022/06/19 15:47:55;;;;;;;;;;;;;;;;;;5008142;27;108122;-68
2022/06/19 15:50:21;;;;;;;;;;;;;;;;;;5012065;28;120556;-68
2022/06/19 15:52:50;;;;;;;;;;;;;;;;;;4989374;28;106143;-69
2022/06/19 15:55:17;;;;;;;;;;;;;;;;;;5000417;27;135210;-68
2022/06/19 15:57:43;;;;;;;;;;;;;;;;;;5003699;27;109986;-68
2022/06/19 16:00:09;;;;;;;;;;;;;;;;;;5002579;27;119033;-68
2022/06/19 16:02:38;;;;;;;;;;;;;;;;;;5009235;27;106505;-68
2022/06/19 16:05:05;;;;;;;;;;;;;;;;;;5001679;28;126046;-70
2022/06/19 16:07:31;;;;;;;;;;;;;;;;;;5007509;27;119149;-67
2022/06/19 16:09:57;;;;;;;;;;;;;;;;;;5008055;28;132539;-67
2022/06/19 16:12:24;;;;;;;;;;;;;;;;;;5014171;28;125593;-71
2022/06/19 16:14:51;;;;;;;;;;;;;;;;;;5009148;28;136481;-68
2022/06/19 16:17:17;;;;;;;;;;;;;;;;;;5004337;27;120853;-67
2022/06/19 16:19:44;;;;;;;;;;;;;;;;;;5001851;27;108689;-67
2022/06/19 16:22:10;;;;;;;;;;;;;;;;;;5006784;28;125421;-67
2022/06/19 16:24:36;;;;;;;;;;;;;;;;;;5009122;28;107230;-68
2022/06/19 16:27:03;;;;;;;;;;;;;;;;;;5010651;28;105675;-67
2022/06/19 16:29:29;;;;;;;;;;;;;;;;;;5005199;27;134563;-67
2022/06/19 16:31:56;;;;;;;;;;;;;;;;;;5010978;27;137637;-66
2022/06/19 16:34:22;;;;;;;;;;;;;;;;;;5008782;28;137309;-66
2022/06/19 16:45:03;;;;;;;;;;;;;;;;;;5005351;28;129641;-67
2022/06/19 16:47:30;;;;;;;;;;;;;;;;;;5009153;28;107018;-67